createdAt,value
2019-01-21T00:01:05.335Z,27.17
2019-01-21T00:02:10.466Z,27.55
2019-01-21T00:03:15.452Z,26.12
2019-01-21T00:04:20.534Z,25.43
2019-01-21T00:05:25.958Z,23.55
2019-01-21T00:06:30.935Z,28.92
2019-01-21T00:07:36.217Z,31.73
2019-01-21T00:08:41.161Z,30.95
2019-01-21T00:09:46.519Z,33.18
2019-01-21T00:10:51.645Z,22.70
2019-01-21T00:11:56.875Z,37.30
2019-01-21T00:13:01.902Z,32.20
2019-01-21T00:14:07.113Z,30.32
2019-01-21T00:15:12.199Z,29.07
2019-01-21T00:16:17.414Z,33.88
2019-01-21T00:17:22.577Z,25.35
2019-01-21T00:18:27.681Z,20.72
2019-01-21T00:19:32.665Z,25.55
2019-01-21T00:20:37.755Z,28.40
2019-01-21T00:21:42.874Z,26.35
2019-01-21T00:22:48.027Z,21.55
2019-01-21T00:23:53.302Z,30.48
2019-01-21T00:24:58.297Z,26.48
2019-01-21T00:26:03.686Z,28.77
2019-01-21T00:27:08.801Z,24.55
2019-01-21T00:28:14.233Z,24.43
2019-01-21T00:29:22.732Z,33.00
2019-01-21T00:30:28.137Z,26.12
2019-01-21T00:31:33.068Z,28.98
2019-01-21T00:32:38.102Z,26.68
2019-01-21T00:33:43.783Z,26.25
2019-01-21T00:34:48.818Z,28.55
2019-01-21T00:35:54.287Z,24.25
2019-01-21T00:37:03.710Z,26.27
2019-01-21T00:38:06.430Z,27.77
2019-01-21T00:39:11.448Z,30.15
2019-01-21T00:40:16.787Z,32.03
2019-01-21T00:41:21.835Z,25.05
2019-01-21T00:42:26.877Z,26.30
2019-01-21T00:43:31.986Z,32.55
2019-01-21T00:44:36.967Z,29.42
2019-01-21T00:45:42.346Z,24.52
2019-01-21T00:46:47.278Z,27.37
2019-01-21T00:47:52.390Z,27.85
2019-01-21T00:48:57.841Z,27.77
2019-01-21T00:50:02.945Z,28.95
2019-01-21T00:51:08.055Z,25.37
2019-01-21T00:52:13.290Z,31.02
2019-01-21T00:53:18.852Z,27.95
2019-01-21T00:54:24.187Z,28.52
2019-01-21T00:55:29.538Z,23.02
2019-01-21T00:56:34.473Z,25.62
2019-01-21T00:57:39.587Z,29.98
2019-01-21T00:58:45.063Z,28.50
2019-01-21T00:59:50.149Z,26.97
2019-01-21T01:00:55.307Z,26.97
2019-01-21T01:02:03.792Z,32.25
2019-01-21T01:03:08.820Z,30.10
2019-01-21T01:04:15.049Z,27.37
2019-01-21T01:05:20.963Z,25.32
2019-01-21T01:06:26.280Z,32.05
2019-01-21T01:07:31.362Z,28.50
2019-01-21T01:08:36.446Z,28.65
2019-01-21T01:09:41.624Z,34.08
2019-01-21T01:10:46.675Z,27.80
2019-01-21T01:11:52.105Z,42.65
2019-01-21T01:12:57.130Z,31.48
2019-01-21T01:14:02.865Z,32.20
2019-01-21T01:15:09.054Z,28.47
2019-01-21T01:16:14.188Z,27.20
2019-01-21T01:17:19.436Z,30.75
2019-01-21T01:18:24.456Z,37.28
2019-01-21T01:19:29.493Z,30.30
2019-01-21T01:20:34.516Z,30.97
2019-01-21T01:21:39.971Z,34.95
2019-01-21T01:22:45.056Z,50.25
2019-01-21T01:23:50.066Z,55.12
2019-01-21T01:24:55.159Z,52.65
2019-01-21T01:26:00.561Z,44.03
2019-01-21T01:27:05.664Z,55.55
2019-01-21T01:28:10.689Z,53.40
2019-01-21T01:29:15.644Z,47.78
2019-01-21T01:30:20.815Z,43.08
2019-01-21T01:31:25.923Z,45.17
2019-01-21T01:32:31.226Z,45.80
2019-01-21T01:33:36.328Z,48.50
2019-01-21T01:34:41.596Z,47.60
2019-01-21T01:35:46.625Z,44.73
2019-01-21T01:36:51.977Z,34.78
2019-01-21T01:37:57.151Z,38.80
2019-01-21T01:39:05.379Z,43.00
2019-01-21T01:40:13.535Z,40.75
2019-01-21T01:41:18.964Z,40.05
2019-01-21T01:42:24.132Z,38.60
2019-01-21T01:43:29.256Z,37.67
2019-01-21T01:44:34.352Z,37.58
2019-01-21T01:45:39.662Z,45.58
2019-01-21T01:46:45.000Z,43.50
2019-01-21T01:47:53.628Z,42.43
2019-01-21T01:48:59.976Z,39.10
2019-01-21T01:50:06.076Z,40.58
2019-01-21T01:51:11.308Z,30.37
2019-01-21T01:52:16.677Z,39.05
2019-01-21T01:53:21.698Z,34.13
2019-01-21T01:54:26.829Z,33.80
2019-01-21T01:55:33.569Z,36.30
2019-01-21T01:56:39.036Z,33.42
2019-01-21T01:57:44.131Z,33.38
2019-01-21T01:58:49.214Z,30.08
2019-01-21T01:59:54.656Z,32.45
2019-01-21T02:01:00.060Z,31.68
2019-01-21T02:02:05.405Z,27.93
2019-01-21T02:03:10.467Z,37.40
2019-01-21T02:04:15.506Z,32.45
2019-01-21T02:05:20.635Z,34.65
2019-01-21T02:06:25.736Z,31.02
2019-01-21T02:07:30.854Z,33.75
2019-01-21T02:08:36.195Z,36.85
2019-01-21T02:09:41.303Z,27.13
2019-01-21T02:10:46.746Z,26.17
2019-01-21T02:11:51.830Z,32.70
2019-01-21T02:12:57.011Z,28.73
2019-01-21T02:14:02.115Z,30.77
2019-01-21T02:15:09.394Z,33.42
2019-01-21T02:16:14.557Z,32.55
2019-01-21T02:17:19.568Z,29.87
2019-01-21T02:18:24.950Z,31.42
2019-01-21T02:19:30.631Z,32.50
2019-01-21T02:20:36.017Z,33.40
2019-01-21T02:21:42.652Z,35.43
2019-01-21T02:22:51.247Z,35.60
2019-01-21T02:24:04.365Z,32.58
2019-01-21T02:25:09.696Z,29.15
2019-01-21T02:26:20.105Z,29.35
2019-01-21T02:27:54.939Z,27.65
2019-01-21T02:29:30.912Z,35.17
2019-01-21T02:30:58.746Z,25.92
2019-01-21T02:32:38.117Z,29.20
2019-01-21T02:34:23.388Z,29.35
2019-01-21T02:35:42.075Z,30.82
2019-01-21T02:37:23.910Z,30.82
2019-01-21T02:38:56.759Z,27.40
2019-01-21T02:40:48.841Z,27.05
2019-01-21T02:42:32.525Z,36.33
2019-01-21T02:44:05.166Z,30.82
2019-01-21T02:45:43.100Z,32.38
2019-01-21T02:47:50.607Z,36.40
2019-01-21T02:49:23.971Z,30.20
2019-01-21T02:51:05.948Z,35.08
2019-01-21T02:52:24.623Z,28.47
2019-01-21T02:54:16.524Z,31.45
2019-01-21T02:56:10.880Z,29.07
2019-01-21T02:57:39.274Z,31.57
2019-01-21T02:59:11.995Z,29.23
2019-01-21T03:00:55.924Z,30.50
2019-01-21T03:02:20.908Z,29.23
2019-01-21T03:04:06.802Z,26.37
2019-01-21T03:05:37.323Z,26.75
2019-01-21T03:06:52.747Z,31.02
2019-01-21T03:08:15.503Z,29.48
2019-01-21T03:10:07.665Z,33.38
2019-01-21T03:11:40.649Z,30.30
2019-01-21T03:13:13.300Z,27.20
2019-01-21T03:14:59.663Z,32.42
2019-01-21T03:16:33.774Z,26.80
2019-01-21T03:18:18.740Z,27.73
2019-01-21T03:20:10.308Z,31.37
2019-01-21T03:21:47.346Z,32.33
2019-01-21T03:23:07.049Z,25.32
2019-01-21T03:24:36.043Z,28.40
2019-01-21T03:26:23.116Z,27.93
2019-01-21T03:28:15.397Z,27.07
2019-01-21T03:29:58.772Z,24.52
2019-01-21T03:31:57.346Z,28.65
2019-01-21T03:33:49.623Z,29.57
2019-01-21T03:35:32.812Z,25.72
2019-01-21T03:37:04.559Z,29.57
2019-01-21T03:38:42.995Z,31.80
2019-01-21T03:40:29.049Z,24.72
2019-01-21T03:42:13.345Z,33.58
2019-01-21T03:43:45.465Z,32.25
2019-01-21T03:45:27.629Z,30.35
2019-01-21T03:47:13.546Z,34.30
2019-01-21T03:48:43.826Z,33.23
2019-01-21T03:50:30.864Z,36.50
2019-01-21T03:52:18.972Z,34.35
2019-01-21T03:54:04.993Z,27.90
2019-01-21T03:55:13.594Z,31.12
2019-01-21T03:57:04.839Z,35.63
2019-01-21T03:58:43.476Z,35.23
2019-01-21T04:00:15.071Z,30.00
2019-01-21T04:01:45.509Z,33.90
2019-01-21T04:03:27.954Z,41.65
2019-01-21T04:05:09.810Z,32.00
2019-01-21T04:06:41.795Z,30.43
2019-01-21T04:08:15.041Z,32.23
2019-01-21T04:09:57.849Z,33.40
2019-01-21T04:11:50.247Z,37.90
2019-01-21T04:13:39.837Z,32.28
2019-01-21T04:14:59.920Z,34.35
2019-01-21T04:16:41.998Z,32.40
2019-01-21T04:18:24.616Z,32.58
2019-01-21T04:19:47.087Z,33.63
2019-01-21T04:21:47.510Z,34.05
2019-01-21T04:23:29.156Z,33.38
2019-01-21T04:25:18.176Z,31.35
2019-01-21T04:26:39.545Z,42.45
2019-01-21T04:28:24.294Z,33.25
2019-01-21T04:30:09.600Z,34.67
2019-01-21T04:31:55.819Z,33.50
2019-01-21T04:33:57.718Z,29.05
2019-01-21T04:35:36.051Z,34.33
2019-01-21T04:37:13.401Z,33.70
2019-01-21T04:38:34.628Z,31.65
2019-01-21T04:40:15.089Z,32.95
2019-01-21T04:41:39.705Z,30.32
2019-01-21T04:43:40.943Z,28.20
2019-01-21T04:44:57.843Z,35.70
2019-01-21T04:46:34.954Z,38.73
2019-01-21T04:48:32.984Z,34.25
2019-01-21T04:50:00.274Z,42.50
2019-01-21T04:51:44.712Z,30.75
2019-01-21T04:53:12.254Z,29.27
2019-01-21T04:54:47.183Z,33.20
2019-01-21T04:56:48.565Z,30.62
2019-01-21T04:58:26.616Z,29.30
2019-01-21T05:00:19.270Z,22.27
2019-01-21T05:02:00.274Z,24.55
2019-01-21T05:03:45.562Z,23.67
2019-01-21T05:05:22.180Z,25.40
2019-01-21T05:06:53.741Z,30.45
2019-01-21T05:08:44.781Z,25.40
2019-01-21T05:10:01.033Z,21.70
2019-01-21T05:11:47.340Z,28.47
2019-01-21T05:13:19.943Z,24.27
2019-01-21T05:15:04.741Z,23.10
2019-01-21T05:16:42.393Z,32.42
2019-01-21T05:18:10.923Z,28.77
2019-01-21T05:19:52.508Z,24.90
2019-01-21T05:22:03.728Z,26.90
2019-01-21T05:23:38.042Z,27.05
2019-01-21T05:25:12.430Z,25.57
2019-01-21T05:26:27.285Z,30.12
2019-01-21T05:28:21.022Z,28.00
2019-01-21T05:30:04.789Z,28.73
2019-01-21T05:32:02.141Z,32.60
2019-01-21T05:34:00.296Z,29.00
2019-01-21T05:36:07.965Z,27.40
2019-01-21T05:37:48.817Z,23.57
2019-01-21T05:39:26.158Z,26.75
2019-01-21T05:41:05.134Z,23.52
2019-01-21T05:42:53.439Z,32.63
2019-01-21T05:44:55.003Z,26.00
2019-01-21T05:46:57.460Z,24.05
2019-01-21T05:48:48.966Z,31.57
2019-01-21T05:50:35.242Z,26.07
2019-01-21T05:52:10.383Z,26.68
2019-01-21T05:54:11.923Z,26.73
2019-01-21T05:56:00.174Z,21.75
2019-01-21T05:57:52.207Z,25.20
2019-01-21T05:59:21.595Z,27.35
2019-01-21T06:01:11.324Z,26.82
2019-01-21T06:03:01.951Z,26.95
2019-01-21T06:04:38.508Z,26.82
2019-01-21T06:06:13.330Z,20.97
2019-01-21T06:08:05.409Z,23.65
2019-01-21T06:09:32.258Z,30.37
2019-01-21T06:10:54.022Z,27.87
2019-01-21T06:12:24.707Z,32.60
2019-01-21T06:13:55.800Z,31.02
2019-01-21T06:15:37.853Z,25.85
2019-01-21T06:17:08.359Z,27.42
2019-01-21T06:18:22.961Z,38.70
2019-01-21T06:20:16.647Z,30.68
2019-01-21T06:21:52.761Z,28.50
2019-01-21T06:23:07.955Z,29.30
2019-01-21T06:24:54.185Z,28.65
2019-01-21T06:26:39.800Z,30.92
2019-01-21T06:28:25.324Z,27.55
2019-01-21T06:29:55.577Z,25.48
2019-01-21T06:31:30.722Z,26.33
2019-01-21T06:32:52.993Z,26.30
2019-01-21T06:34:26.767Z,30.35
2019-01-21T06:35:56.084Z,28.57
2019-01-21T06:37:35.732Z,25.65
2019-01-21T06:39:16.785Z,36.55
2019-01-21T06:41:02.754Z,23.38
2019-01-21T06:42:21.435Z,42.85
2019-01-21T06:44:02.752Z,25.62
2019-01-21T06:45:23.987Z,32.13
2019-01-21T06:46:59.184Z,31.75
2019-01-21T06:48:55.619Z,29.10
2019-01-21T06:50:28.865Z,29.35
2019-01-21T06:52:11.738Z,30.70
2019-01-21T06:54:02.850Z,20.60
2019-01-21T06:55:38.155Z,23.83
2019-01-21T06:57:21.464Z,24.75
2019-01-21T06:58:52.901Z,25.60
2019-01-21T07:00:47.298Z,30.35
2019-01-21T07:02:17.261Z,29.48
2019-01-21T07:04:02.831Z,22.80
2019-01-21T07:05:39.331Z,31.12
2019-01-21T07:07:22.215Z,23.95
2019-01-21T07:08:53.082Z,27.22
2019-01-21T07:10:44.334Z,27.98
2019-01-21T07:12:45.920Z,23.47
2019-01-21T07:14:18.365Z,21.20
2019-01-21T07:16:21.821Z,29.10
2019-01-21T07:18:12.333Z,25.08
2019-01-21T07:19:50.980Z,27.25
2019-01-21T07:21:25.073Z,32.15
2019-01-21T07:22:50.587Z,25.72
2019-01-21T07:24:22.989Z,26.68
2019-01-21T07:26:27.840Z,30.43
2019-01-21T07:28:29.324Z,34.90
2019-01-21T07:30:21.960Z,22.65
2019-01-21T07:31:48.706Z,31.05
2019-01-21T07:33:28.867Z,28.00
2019-01-21T07:35:10.308Z,26.30
2019-01-21T07:36:48.190Z,26.02
2019-01-21T07:38:07.062Z,29.27
2019-01-21T07:39:46.949Z,29.37
2019-01-21T07:41:18.690Z,30.30
2019-01-21T07:42:56.636Z,24.12
2019-01-21T07:44:22.008Z,29.80
2019-01-21T07:45:46.249Z,33.33
2019-01-21T07:47:30.015Z,26.07
2019-01-21T07:49:17.640Z,26.27
2019-01-21T07:51:04.356Z,33.75
2019-01-21T07:53:14.906Z,23.00
2019-01-21T07:55:01.907Z,26.07
2019-01-21T07:56:43.150Z,21.12
2019-01-21T07:58:16.709Z,27.05
2019-01-21T08:00:07.783Z,24.30
2019-01-21T08:01:48.005Z,28.38
2019-01-21T08:03:22.755Z,29.87
2019-01-21T08:04:54.732Z,27.90
2019-01-21T08:06:49.747Z,27.70
2019-01-21T08:08:41.904Z,21.90
2019-01-21T08:10:43.029Z,24.75
2019-01-21T08:12:22.987Z,28.80
2019-01-21T08:14:09.880Z,30.50
2019-01-21T08:15:37.826Z,26.82
2019-01-21T08:17:06.425Z,24.77
2019-01-21T08:18:46.969Z,28.62
2019-01-21T08:20:22.828Z,23.12
2019-01-21T08:22:08.013Z,28.60
2019-01-21T08:23:45.396Z,24.43
2019-01-21T08:25:26.473Z,24.77
2019-01-21T08:27:04.153Z,27.87
2019-01-21T08:28:45.680Z,30.57
2019-01-21T08:30:26.857Z,27.85
2019-01-21T08:31:57.963Z,26.73
2019-01-21T08:33:32.125Z,27.22
2019-01-21T08:35:11.144Z,23.47
2019-01-21T08:36:52.161Z,23.98
2019-01-21T08:38:20.403Z,22.95
2019-01-21T08:39:46.955Z,28.47
2019-01-21T08:41:36.144Z,36.68
2019-01-21T08:43:11.139Z,29.25
2019-01-21T08:44:56.610Z,31.48
2019-01-21T08:46:33.758Z,21.40
2019-01-21T08:48:16.839Z,26.02
2019-01-21T08:50:14.006Z,27.58
2019-01-21T08:52:14.873Z,27.10
2019-01-21T08:53:34.423Z,25.12
2019-01-21T08:54:54.215Z,24.35
2019-01-21T08:56:34.127Z,35.45
2019-01-21T08:58:25.215Z,23.98
2019-01-21T09:00:01.113Z,26.60
2019-01-21T09:01:41.845Z,27.13
2019-01-21T09:03:30.403Z,31.07
2019-01-21T09:05:25.933Z,27.75
2019-01-21T09:07:10.690Z,38.10
2019-01-21T09:08:48.949Z,24.20
2019-01-21T09:10:23.332Z,32.08
2019-01-21T09:12:09.636Z,31.00
2019-01-21T09:13:45.692Z,32.70
2019-01-21T09:15:11.355Z,26.90
2019-01-21T09:17:25.176Z,32.38
2019-01-21T09:18:54.906Z,30.70
2019-01-21T09:20:40.723Z,37.42
2019-01-21T09:22:02.181Z,29.42
2019-01-21T09:24:02.882Z,26.62
2019-01-21T09:25:28.077Z,42.27
2019-01-21T09:27:04.886Z,36.53
2019-01-21T09:28:37.906Z,27.75
2019-01-21T09:30:14.968Z,36.73
2019-01-21T09:31:58.475Z,30.25
2019-01-21T09:33:33.657Z,32.73
2019-01-21T09:34:50.173Z,39.70
2019-01-21T09:36:22.116Z,31.62
2019-01-21T09:37:48.524Z,32.80
2019-01-21T09:39:27.306Z,45.83
2019-01-21T09:41:31.953Z,33.02
2019-01-21T09:43:00.496Z,31.50
2019-01-21T09:44:36.044Z,41.05
2019-01-21T09:46:31.269Z,38.98
2019-01-21T09:47:34.755Z,29.77
2019-01-21T09:48:38.300Z,33.50
2019-01-21T09:49:43.998Z,35.25
2019-01-21T09:50:50.619Z,31.73
2019-01-21T09:52:19.980Z,36.30
2019-01-21T09:53:25.482Z,33.33
2019-01-21T09:54:30.746Z,32.60
2019-01-21T09:55:39.377Z,38.13
2019-01-21T09:56:44.386Z,33.88
2019-01-21T09:57:51.487Z,30.50
2019-01-21T09:58:58.880Z,30.52
2019-01-21T10:00:06.209Z,45.30
2019-01-21T10:01:11.339Z,43.45
2019-01-21T10:02:18.654Z,33.90
2019-01-21T10:03:24.429Z,35.78
2019-01-21T10:04:56.667Z,40.55
2019-01-21T10:06:08.863Z,43.15
2019-01-21T10:07:40.799Z,39.08
2019-01-21T10:09:07.307Z,37.30
2019-01-21T10:10:47.795Z,34.35
2019-01-21T10:12:34.928Z,36.70
2019-01-21T10:14:16.448Z,37.05
2019-01-21T10:15:53.609Z,33.75
2019-01-21T10:17:39.785Z,35.80
2019-01-21T10:19:18.690Z,33.63
2019-01-21T10:21:07.211Z,45.60
2019-01-21T10:22:37.767Z,44.93
2019-01-21T10:24:21.904Z,42.98
2019-01-21T10:25:59.756Z,34.23
2019-01-21T10:27:34.743Z,42.95
2019-01-21T10:29:05.398Z,26.07
2019-01-21T10:30:42.144Z,47.93
2019-01-21T10:32:33.692Z,32.53
2019-01-21T10:34:03.667Z,37.38
2019-01-21T10:35:39.069Z,29.77
2019-01-21T10:37:37.729Z,36.58
2019-01-21T10:39:26.182Z,30.65
2019-01-21T10:40:59.533Z,37.45
2019-01-21T10:42:42.836Z,44.05
2019-01-21T10:44:08.143Z,43.83
2019-01-21T10:45:50.768Z,32.35
2019-01-21T10:47:19.500Z,42.08
2019-01-21T10:48:37.098Z,41.65
2019-01-21T10:49:58.347Z,45.30
2019-01-21T10:51:28.616Z,43.70
2019-01-21T10:53:05.026Z,41.08
2019-01-21T10:54:48.205Z,49.10
2019-01-21T10:56:02.082Z,42.95
2019-01-21T10:57:37.681Z,35.23
2019-01-21T10:59:11.809Z,39.92
2019-01-21T11:00:53.902Z,38.65
2019-01-21T11:02:40.988Z,42.08
2019-01-21T11:04:23.423Z,44.95
2019-01-21T11:06:06.756Z,33.75
2019-01-21T11:07:48.978Z,50.05
2019-01-21T11:09:29.123Z,35.48
2019-01-21T11:11:11.612Z,42.20
2019-01-21T11:12:34.194Z,42.38
2019-01-21T11:14:22.129Z,32.98
2019-01-21T11:15:41.464Z,36.33
2019-01-21T11:17:20.752Z,47.85
2019-01-21T11:18:45.569Z,35.13
2019-01-21T11:20:08.061Z,48.68
2019-01-21T11:21:21.805Z,38.53
2019-01-21T11:22:40.122Z,36.60
2019-01-21T11:24:41.460Z,36.90
2019-01-21T11:26:58.486Z,40.63
2019-01-21T11:28:40.483Z,41.18
2019-01-21T11:30:44.240Z,37.88
2019-01-21T11:32:03.654Z,46.20
2019-01-21T11:33:40.220Z,34.65
2019-01-21T11:35:09.011Z,34.83
2019-01-21T11:36:41.346Z,43.73
2019-01-21T11:38:16.193Z,37.67
2019-01-21T11:39:38.243Z,35.68
2019-01-21T11:41:14.700Z,30.80
2019-01-21T11:42:52.799Z,36.00
2019-01-21T11:44:20.720Z,35.33
2019-01-21T11:46:08.480Z,35.17
2019-01-21T11:47:43.643Z,35.80
2019-01-21T11:49:29.029Z,36.75
2019-01-21T11:51:05.879Z,45.20
2019-01-21T11:52:24.523Z,40.25
2019-01-21T11:53:43.688Z,36.08
2019-01-21T11:55:24.702Z,36.03
2019-01-21T11:56:48.955Z,52.65
2019-01-21T11:58:30.975Z,44.95
2019-01-21T12:00:22.114Z,34.45
2019-01-21T12:02:07.932Z,35.40
2019-01-21T12:03:37.894Z,45.17
2019-01-21T12:04:49.214Z,40.35
2019-01-21T12:06:08.711Z,42.70
2019-01-21T12:07:48.919Z,54.80
2019-01-21T12:09:19.258Z,39.18
2019-01-21T12:10:57.019Z,39.92
2019-01-21T12:12:25.271Z,41.60
2019-01-21T12:14:17.373Z,40.48
2019-01-21T12:16:06.223Z,41.68
2019-01-21T12:17:56.400Z,49.63
2019-01-21T12:19:18.160Z,40.17
2019-01-21T12:21:10.433Z,40.23
2019-01-21T12:23:15.131Z,39.27
2019-01-21T12:24:44.033Z,39.80
2019-01-21T12:25:56.917Z,47.43
2019-01-21T12:27:53.167Z,37.38
2019-01-21T12:29:24.350Z,43.95
2019-01-21T12:30:43.708Z,41.92
2019-01-21T12:32:05.905Z,42.48
2019-01-21T12:33:36.833Z,47.08
2019-01-21T12:35:09.441Z,39.55
2019-01-21T12:36:55.017Z,49.77
2019-01-21T12:38:17.965Z,39.27
2019-01-21T12:40:05.143Z,55.58
2019-01-21T12:41:57.140Z,44.10
2019-01-21T12:43:46.340Z,43.15
2019-01-21T12:45:35.172Z,37.00
2019-01-21T12:46:55.097Z,40.58
2019-01-21T12:48:47.603Z,36.75
2019-01-21T12:50:24.092Z,36.48
2019-01-21T12:51:57.611Z,40.48
2019-01-21T12:53:16.035Z,40.90
2019-01-21T12:54:59.159Z,32.13
2019-01-21T12:56:40.361Z,39.83
2019-01-21T12:58:05.021Z,40.98
2019-01-21T12:59:36.785Z,37.93
2019-01-21T13:01:22.302Z,41.35
2019-01-21T13:02:50.395Z,35.43
2019-01-21T13:04:26.448Z,41.77
2019-01-21T13:05:48.276Z,30.48
2019-01-21T13:07:27.270Z,32.25
2019-01-21T13:08:44.482Z,34.43
2019-01-21T13:10:36.203Z,26.27
2019-01-21T13:12:11.317Z,32.88
2019-01-21T13:14:02.734Z,31.68
2019-01-21T13:15:25.732Z,33.45
2019-01-21T13:16:55.431Z,31.10
2019-01-21T13:18:33.825Z,36.80
2019-01-21T13:20:11.050Z,32.15
2019-01-21T13:21:36.308Z,32.90
2019-01-21T13:23:00.401Z,34.48
2019-01-21T13:24:51.042Z,40.00
2019-01-21T13:26:32.535Z,35.05
2019-01-21T13:28:02.462Z,41.65
2019-01-21T13:30:07.037Z,45.83
2019-01-21T13:32:05.471Z,33.13
2019-01-21T13:33:49.399Z,41.68
2019-01-21T13:35:23.667Z,37.63
2019-01-21T13:37:25.846Z,36.63
2019-01-21T13:39:11.278Z,43.23
2019-01-21T13:40:50.731Z,36.55
2019-01-21T13:42:12.616Z,38.38
2019-01-21T13:43:40.310Z,32.15
2019-01-21T13:45:22.636Z,36.38
2019-01-21T13:47:07.481Z,35.15
2019-01-21T13:48:21.427Z,38.05
2019-01-21T13:49:45.487Z,37.60
2019-01-21T13:51:47.023Z,45.05
2019-01-21T13:53:15.367Z,45.90
2019-01-21T13:54:40.104Z,50.33
2019-01-21T13:56:10.504Z,55.63
2019-01-21T13:58:02.842Z,36.65
2019-01-21T13:59:44.796Z,65.22
2019-01-21T14:01:11.903Z,41.85
2019-01-21T14:02:29.975Z,44.45
2019-01-21T14:04:17.461Z,51.90
2019-01-21T14:05:55.016Z,40.78
2019-01-21T14:07:23.243Z,44.42
2019-01-21T14:08:48.128Z,39.63
2019-01-21T14:10:26.095Z,39.83
2019-01-21T14:11:55.476Z,37.28
2019-01-21T14:13:37.516Z,44.03
2019-01-21T14:15:20.510Z,50.00
2019-01-21T14:17:01.717Z,40.70
2019-01-21T14:18:51.099Z,38.78
2019-01-21T14:20:08.303Z,36.88
2019-01-21T14:21:33.151Z,54.45
2019-01-21T14:22:58.413Z,43.35
2019-01-21T14:25:09.085Z,39.38
2019-01-21T14:26:36.646Z,36.23
2019-01-21T14:28:23.097Z,44.42
2019-01-21T14:30:06.558Z,53.83
2019-01-21T14:31:52.857Z,47.23
2019-01-21T14:33:12.894Z,40.05
2019-01-21T14:35:11.317Z,40.70
2019-01-21T14:36:55.698Z,46.65
2019-01-21T14:38:25.094Z,42.78
2019-01-21T14:40:26.823Z,38.33
2019-01-21T14:41:44.604Z,38.80
2019-01-21T14:43:42.660Z,42.50
2019-01-21T14:45:34.430Z,45.03
2019-01-21T14:47:15.784Z,38.70
2019-01-21T14:48:53.546Z,45.10
2019-01-21T14:50:58.049Z,38.75
2019-01-21T14:52:27.668Z,36.90
2019-01-21T14:53:49.463Z,37.25
2019-01-21T14:55:30.880Z,36.68
2019-01-21T14:57:13.957Z,37.25
2019-01-21T14:58:29.243Z,47.35
2019-01-21T15:00:00.307Z,39.00
2019-01-21T15:01:33.520Z,45.80
2019-01-21T15:02:55.282Z,40.30
2019-01-21T15:04:44.865Z,39.38
2019-01-21T15:06:47.116Z,40.58
2019-01-21T15:08:01.873Z,48.13
2019-01-21T15:09:57.086Z,39.10
2019-01-21T15:11:36.336Z,40.73
2019-01-21T15:13:13.905Z,36.77
2019-01-21T15:14:34.423Z,38.55
2019-01-21T15:16:11.830Z,42.98
2019-01-21T15:18:07.375Z,43.10
2019-01-21T15:19:33.595Z,45.67
2019-01-21T15:21:10.182Z,37.90
2019-01-21T15:22:51.218Z,41.20
2019-01-21T15:24:33.487Z,44.30
2019-01-21T15:26:11.008Z,43.05
2019-01-21T15:27:57.206Z,38.13
2019-01-21T15:29:45.351Z,37.80
2019-01-21T15:31:04.607Z,35.35
2019-01-21T15:32:43.526Z,40.50
2019-01-21T15:34:21.522Z,35.20
2019-01-21T15:36:06.866Z,48.17
2019-01-21T15:37:45.613Z,39.80
2019-01-21T15:39:18.545Z,38.95
2019-01-21T15:40:38.003Z,52.08
2019-01-21T15:42:20.300Z,33.13
2019-01-21T15:43:57.950Z,42.67
2019-01-21T15:45:44.482Z,39.35
2019-01-21T15:47:19.395Z,38.58
2019-01-21T15:49:07.829Z,34.55
2019-01-21T15:50:33.862Z,32.78
2019-01-21T15:52:30.090Z,41.02
2019-01-21T15:53:45.107Z,36.20
2019-01-21T15:55:25.364Z,38.58
2019-01-21T15:56:57.029Z,38.45
2019-01-21T15:58:45.721Z,38.13
2019-01-21T16:00:44.154Z,44.93
2019-01-21T16:02:02.033Z,40.50
2019-01-21T16:03:39.382Z,38.55
2019-01-21T16:05:11.776Z,41.08
2019-01-21T16:06:38.075Z,39.95
2019-01-21T16:07:59.615Z,39.48
2019-01-21T16:09:53.629Z,40.40
2019-01-21T16:11:43.720Z,43.13
2019-01-21T16:13:04.508Z,33.85
2019-01-21T16:14:14.011Z,40.38
2019-01-21T16:15:59.791Z,49.42
2019-01-21T16:17:53.714Z,41.42
2019-01-21T16:19:05.664Z,43.90
2019-01-21T16:20:45.351Z,40.60
2019-01-21T16:22:26.413Z,47.65
2019-01-21T16:23:45.949Z,50.92
2019-01-21T16:25:03.546Z,36.00
2019-01-21T16:26:15.706Z,38.08
2019-01-21T16:28:14.324Z,41.63
2019-01-21T16:29:53.852Z,42.25
2019-01-21T16:31:10.858Z,45.12
2019-01-21T16:32:54.617Z,39.92
2019-01-21T16:34:39.635Z,37.05
2019-01-21T16:36:11.019Z,32.83
2019-01-21T16:37:30.042Z,40.15
2019-01-21T16:38:58.265Z,45.38
2019-01-21T16:40:30.585Z,47.75
2019-01-21T16:41:54.385Z,45.17
2019-01-21T16:43:00.268Z,41.00
2019-01-21T16:44:06.001Z,34.98
2019-01-21T16:45:11.210Z,38.17
2019-01-21T16:46:16.664Z,41.33
2019-01-21T16:47:22.655Z,42.90
2019-01-21T16:48:29.370Z,40.55
2019-01-21T16:49:35.777Z,40.78
2019-01-21T16:50:42.990Z,37.03
2019-01-21T16:51:48.354Z,42.70
2019-01-21T16:52:55.210Z,43.33
2019-01-21T16:54:02.201Z,49.58
2019-01-21T16:55:07.678Z,40.83
2019-01-21T16:56:13.427Z,41.60
2019-01-21T16:57:19.345Z,46.77
2019-01-21T16:58:25.210Z,47.25
2019-01-21T16:59:30.583Z,47.48
2019-01-21T17:00:36.104Z,45.43
2019-01-21T17:01:41.936Z,43.95
2019-01-21T17:02:47.536Z,42.90
2019-01-21T17:03:53.301Z,45.70
2019-01-21T17:04:59.330Z,47.05
2019-01-21T17:06:05.068Z,46.42
2019-01-21T17:07:10.469Z,47.03
2019-01-21T17:08:16.112Z,48.02
2019-01-21T17:09:22.033Z,44.95
2019-01-21T17:10:28.777Z,43.95
2019-01-21T17:11:35.227Z,53.08
2019-01-21T17:12:40.365Z,48.17
2019-01-21T17:13:45.705Z,54.60
2019-01-21T17:14:57.358Z,47.95
2019-01-21T17:15:59.137Z,43.90
2019-01-21T17:17:05.130Z,44.40
2019-01-21T17:18:10.315Z,40.83
2019-01-21T17:19:15.710Z,45.15
2019-01-21T17:20:22.131Z,41.35
2019-01-21T17:21:27.972Z,36.80
2019-01-21T17:22:33.186Z,45.70
2019-01-21T17:23:38.474Z,41.60
2019-01-21T17:24:44.323Z,42.78
2019-01-21T17:25:49.857Z,40.70
2019-01-21T17:26:55.824Z,40.25
2019-01-21T17:28:01.672Z,48.60
2019-01-21T17:29:06.984Z,50.50
2019-01-21T17:30:13.594Z,43.28
2019-01-21T17:31:18.828Z,41.65
2019-01-21T17:32:24.540Z,44.73
2019-01-21T17:33:30.619Z,43.33
2019-01-21T17:34:36.231Z,50.63
2019-01-21T17:35:41.882Z,47.73
2019-01-21T17:36:47.313Z,47.17
2019-01-21T17:37:52.792Z,43.60
2019-01-21T17:38:58.658Z,50.95
2019-01-21T17:40:05.232Z,55.52
2019-01-21T17:41:10.620Z,47.40
2019-01-21T17:42:16.437Z,46.18
2019-01-21T17:43:21.751Z,48.42
2019-01-21T17:44:27.268Z,43.10
2019-01-21T17:45:32.759Z,51.83
2019-01-21T17:46:38.163Z,55.75
2019-01-21T17:47:43.600Z,48.23
2019-01-21T17:48:49.140Z,53.68
2019-01-21T17:49:56.168Z,50.33
2019-01-21T17:51:02.361Z,53.73
2019-01-21T17:52:07.515Z,49.53
2019-01-21T17:53:12.941Z,49.85
2019-01-21T17:54:18.280Z,60.98
2019-01-21T17:55:24.061Z,54.35
2019-01-21T17:56:31.453Z,54.58
2019-01-21T17:57:36.761Z,58.20
2019-01-21T17:58:42.627Z,54.13
2019-01-21T17:59:47.890Z,56.92
2019-01-21T18:00:54.557Z,53.50
2019-01-21T18:02:00.185Z,60.75
2019-01-21T18:03:05.648Z,51.02
2019-01-21T18:04:10.939Z,49.13
2019-01-21T18:05:16.608Z,53.25
2019-01-21T18:06:22.085Z,49.48
2019-01-21T18:07:27.853Z,60.33
2019-01-21T18:08:33.184Z,51.75
2019-01-21T18:09:38.510Z,49.50
2019-01-21T18:10:43.820Z,51.37
2019-01-21T18:11:49.588Z,53.78
2019-01-21T18:12:56.268Z,49.20
2019-01-21T18:14:02.101Z,46.77
2019-01-21T18:15:09.052Z,54.70
2019-01-21T18:16:14.393Z,52.88
2019-01-21T18:17:19.622Z,53.23
2019-01-21T18:18:25.544Z,53.98
2019-01-21T18:19:31.195Z,55.35
2019-01-21T18:20:36.651Z,47.25
2019-01-21T18:21:42.013Z,52.62
2019-01-21T18:22:47.261Z,50.28
2019-01-21T18:23:52.338Z,50.75
2019-01-21T18:24:58.350Z,46.35
2019-01-21T18:26:08.388Z,53.23
2019-01-21T18:27:13.681Z,53.50
2019-01-21T18:28:19.481Z,48.87
2019-01-21T18:29:25.751Z,51.70
2019-01-21T18:30:31.056Z,50.17
2019-01-21T18:31:36.821Z,46.98
2019-01-21T18:32:42.040Z,56.88
2019-01-21T18:33:47.484Z,51.25
2019-01-21T18:34:53.186Z,46.68
2019-01-21T18:35:59.412Z,56.20
2019-01-21T18:37:05.454Z,53.30
2019-01-21T18:38:11.124Z,51.10
2019-01-21T18:39:16.473Z,47.33
2019-01-21T18:40:22.530Z,51.70
2019-01-21T18:41:27.851Z,53.70
2019-01-21T18:42:32.874Z,59.95
2019-01-21T18:43:37.905Z,61.42
2019-01-21T18:44:43.237Z,51.15